Costa Luminosa — ICGU — position and weather

sailwx.info

Track history (hours):
 
Tides and Currents Weather Stations Pressure Air Temp Water Temp Dewpoint Dewpoint Depression Visibility Wind Speed Wind Dir Waves Ship Positions

Costa Luminosa

Last reported at 2014-Sep-22 21:33 UTC. Time now 2014-Sep-22 22:24 UTC.
Position N 43°03' E 006°47'.

Length 294 m; draft 8.1 m.

Type: Passenger vessel. MMSI: 247257900.

Date/timePositionNaut miles runAvg speedWind from/ knotsBaromVisibWave heightAir tempDewpointWater temp
2014-Sep-22 21:33N 43°03' E 006°47'1414.4
2014-Sep-22 20:33N 42°56' E 006°30'1515.2
2014-Sep-22 19:33N 42°56' E 006°09'1615.8
2014-Sep-22 18:33N 43°01' E 005°49'2416.3
2014-Sep-22 17:03N 43°11' E 005°18'714.0
2014-Sep-22 16:33N 43°18' E 005°16'4 0.5
2014-Sep-22 09:09N 43°21' E 005°20'4 7.1
2014-Sep-22 08:33N 43°19' E 005°15'1514.6
2014-Sep-22 07:33N 43°06' E 005°04'1716.7
2014-Sep-22 06:33N 42°55' E 004°48'1616.4
2014-Sep-22 05:33N 42°43' E 004°32'1513.0
2014-Sep-22 04:25N 42°33' E 004°18'1112.2
2014-Sep-22 03:30N 42°25' E 004°07'1212.6
2014-Sep-22 02:33N 42°16' E 003°56'1313.0
2014-Sep-22 01:31N 42°07' E 003°43'1312.8
2014-Sep-22 00:30N 41°57' E 003°30'1212.8
2014-Sep-21 23:34N 41°49' E 003°19'1312.8
2014-Sep-21 22:33N 41°41' E 003°06'1312.8
2014-Sep-21 21:33N 41°35' E 002°51'1313.2
2014-Sep-21 20:33N 41°27' E 002°36'1313.0
2014-Sep-21 19:32N 41°20' E 002°22'9 8.9
2014-Sep-21 18:33N 41°19' E 002°10'2 1.9
2014-Sep-21 17:26N 41°21' E 002°11'0 0.0
2014-Sep-21 16:29N 41°21' E 002°11'0 0.0
2014-Sep-21 15:26N 41°21' E 002°11'0 0.0
2014-Sep-21 14:32N 41°21' E 002°11'0 0.0
2014-Sep-21 12:32N 41°21' E 002°11'0 0.0
2014-Sep-21 11:26N 41°21' E 002°11'5 5.2
2014-Sep-21 10:33N 41°17' E 002°12'1612.6
2014-Sep-21 09:18N 41°22' E 002°32'1314.7
2014-Sep-21 08:25N 41°28' E 002°47'2116.7
2014-Sep-21 07:11N 41°37' E 003°11'1117.1
2014-Sep-21 06:33N 41°42' E 003°24'1717.0
2014-Sep-21 05:33N 41°50' E 003°44'3616.5
2014-Sep-21 03:23N 42°07' E 004°27'1316.1
2014-Sep-21 02:33N 42°13' E 004°43'1616.1
2014-Sep-21 01:34N 42°20' E 005°02'1717.1
2014-Sep-21 00:32N 42°28' E 005°23'1818.4
2014-Sep-20 23:34N 42°37' E 005°45'1918.8
2014-Sep-20 22:33N 42°46' E 006°07'1919.3
2014-Sep-20 21:34N 42°55' E 006°30'1919.3
2014-Sep-20 20:34N 43°07' E 006°51'1918.9
2014-Sep-20 19:33N 43°19' E 007°12'1919.1
2014-Sep-20 18:33N 43°30' E 007°33'3818.9
2014-Sep-20 16:33N 43°54' E 008°14'1818.3
2014-Sep-20 15:33N 44°09' E 008°27'9 9.1
2014-Sep-20 14:31N 44°19' E 008°29'0 0.0
2014-Sep-20 13:31N 44°19' E 008°29'0 0.0
2014-Sep-20 12:31N 44°19' E 008°29'0 0.0
2014-Sep-20 11:28N 44°19' E 008°29'0 0.0
2014-Sep-20 10:31N 44°19' E 008°29'0 0.0
2014-Sep-20 09:28N 44°19' E 008°29'0 0.0
2014-Sep-20 08:28N 44°19' E 008°29'0 0.0
2014-Sep-20 07:25N 44°19' E 008°29'0 0.0
2014-Sep-20 06:28N 44°19' E 008°29'5 5.5
2014-Sep-20 05:33N 44°14' E 008°31'1616.4
2014-Sep-20 04:33N 43°59' E 008°20'1818.4
2014-Sep-20 03:33N 43°46' E 008°03'1716.7
2014-Sep-20 02:33N 43°36' E 007°45'1514.8
2014-Sep-20 01:33N 43°27' E 007°29'1514.9
2014-Sep-20 00:34N 43°17' E 007°12'1514.8
2014-Sep-19 23:34N 43°08' E 006°56'1414.4
2014-Sep-19 22:33N 43°00' E 006°40'1413.8
2014-Sep-19 21:33N 42°56' E 006°22'1414.0
2014-Sep-19 20:33N 42°58' E 006°03'1514.7
2014-Sep-19 19:33N 43°02' E 005°44'2014.7
2014-Sep-19 18:12N 43°10' E 005°19'711.2
2014-Sep-19 17:33N 43°17' E 005°15'5 0.8
2014-Sep-19 10:24N 43°21' E 005°20'6 7.2
2014-Sep-19 09:34N 43°17' E 005°13'1313.3
2014-Sep-19 08:34N 43°05' E 005°06'1111.2
2014-Sep-19 07:33N 42°56' E 004°57'1614.4
2014-Sep-19 06:25N 42°42' E 004°45'2015.2
2014-Sep-19 05:06N 42°25' E 004°31'10916.2
2014-Sep-18 22:22N 40°52' E 003°14'2015.9
2014-Sep-18 21:06N 40°35' E 003°00'915.8
2014-Sep-18 20:33N 40°28' E 002°53'1615.9
2014-Sep-18 19:34N 40°15' E 002°42'1716.3
2014-Sep-18 18:31N 40°00' E 002°30'1717.1
2014-Sep-18 17:33N 39°46' E 002°19'1816.3
2014-Sep-18 16:28N 39°31' E 002°07'1716.2
2014-Sep-18 15:24N 39°17' E 001°55'1416.0
2014-Sep-18 14:32N 39°05' E 001°45'1614.8
2014-Sep-18 13:27N 38°54' E 001°30'2 0.3
2014-Sep-18 06:27N 38°54' E 001°27'8410.4
2014-Sep-17 22:20N 40°15' E 001°58'2913.2
2014-Sep-17 20:07N 40°44' E 002°04'1013.7
2014-Sep-17 19:24N 40°54' E 002°06'1113.2
2014-Sep-17 18:32N 41°05' E 002°08'23 2.5
2014-Sep-17 09:27N 41°21' E 002°30'1415.9
2014-Sep-17 08:33N 41°27' E 002°48'1615.8
2014-Sep-17 07:33N 41°35' E 003°06'1616.3
2014-Sep-17 06:33N 41°42' E 003°25'1716.3
2014-Sep-17 05:30N 41°50' E 003°45'1716.5
2014-Sep-17 04:29N 41°58' E 004°06'8216.6
2014-Sep-16 23:33N 42°36' E 005°43'1919.0
2014-Sep-16 22:33N 42°45' E 006°06'1919.5
2014-Sep-16 21:33N 42°55' E 006°29'1919.0
2014-Sep-16 20:33N 43°05' E 006°51'1919.2
2014-Sep-16 19:33N 43°18' E 007°11'1919.1
2014-Sep-16 18:33N 43°29' E 007°32'3919.0
2014-Sep-16 16:29N 43°54' E 008°14'1718.2
2014-Sep-16 15:33N 44°08' E 008°26'1110.5
2014-Sep-16 14:33N 44°19' E 008°30'0 0.0
2014-Sep-16 13:30N 44°19' E 008°30'0 0.0
2014-Sep-16 12:33N 44°19' E 008°30'0 0.0
2014-Sep-16 10:30N 44°19' E 008°30'0 0.0
2014-Sep-16 08:33N 44°19' E 008°30'0 0.0
2014-Sep-16 07:24N 44°19' E 008°30'0 0.5
2014-Sep-16 06:33N 44°19' E 008°30'1010.5
2014-Sep-16 05:33N 44°09' E 008°29'1615.8
2014-Sep-16 04:32N 43°56' E 008°16'1616.6
2014-Sep-16 03:33N 43°45' E 007°59'1817.9
2014-Sep-16 02:33N 43°32' E 007°40'1818.0
2014-Sep-16 01:33N 43°21' E 007°22'1818.0
2014-Sep-16 00:33N 43°08' E 007°04'1817.8
2014-Sep-15 23:33N 42°58' E 006°45'1817.7
2014-Sep-15 22:33N 42°46' E 006°26'1818.1
2014-Sep-15 21:33N 42°34' E 006°08'2118.5
2014-Sep-15 20:24N 42°20' E 005°46'1918.9
2014-Sep-15 19:25N 42°08' E 005°27'9918.6
2014-Sep-15 14:05N 41°02' E 003°48'1518.8
2014-Sep-15 13:17N 40°53' E 003°33'7534.0
2014-Sep-15 11:05N 40°03' E 002°18'14 5.5
2014-Sep-15 08:29N 39°53' E 002°04'1918.9
2014-Sep-15 07:27N 39°41' E 001°45'9418.6
2014-Sep-15 02:22N 38°33' E 000°20'2218.6
2014-Sep-15 01:09N 38°15' E 000°04'1118.7
2014-Sep-15 00:33N 38°05' W 000°04'1919.0
2014-Sep-14 23:33N 37°49' W 000°17'1918.9
2014-Sep-14 22:33N 37°33' W 000°30'1919.0
2014-Sep-14 21:33N 37°21' W 000°48'1918.7
2014-Sep-14 20:33N 37°08' W 001°05'1919.1
2014-Sep-14 19:33N 36°55' W 001°23'1919.0
2014-Sep-14 18:33N 36°43' W 001°41'2118.7
2014-Sep-14 17:25N 36°29' W 002°01'1818.7
2014-Sep-14 16:27N 36°21' W 002°21'187 9.3
2014-Sep-13 20:24N 35°53' W 006°09'1111.8
2014-Sep-13 19:29N 35°59' W 006°21'1213.5
2014-Sep-13 18:33N 36°11' W 006°23'1313.4
2014-Sep-13 17:33N 36°24' W 006°25'11 0.9
2014-Sep-13 06:23N 36°33' W 006°17'10720.2
2014-Sep-13 01:06N 36°33' W 008°29'1221.6
2014-Sep-13 00:34N 36°33' W 008°44'  
Track history (hours):
 
Tides and Currents Weather Stations Pressure Air Temp Water Temp Dewpoint Dewpoint Depression Visibility Wind Speed Wind Dir Waves Ship Positions

Costa Luminosa

Last reported at 2014-Sep-22 21:33 UTC. Time now 2014-Sep-22 22:24 UTC.
Position N 43°03' E 006°47'.

Length 294 m; draft 8.1 m.

Type: Passenger vessel. MMSI: 247257900.

Date/timePositionNaut miles runAvg speedWind from/ knotsBaromVisibWave heightAir tempDewpointWater temp
2014-Sep-22 21:33N 43°03' E 006°47'1414.4
2014-Sep-22 20:33N 42°56' E 006°30'1515.2
2014-Sep-22 19:33N 42°56' E 006°09'1615.8
2014-Sep-22 18:33N 43°01' E 005°49'2416.3
2014-Sep-22 17:03N 43°11' E 005°18'714.0
2014-Sep-22 16:33N 43°18' E 005°16'4 0.5
2014-Sep-22 09:09N 43°21' E 005°20'4 7.1
2014-Sep-22 08:33N 43°19' E 005°15'1514.6
2014-Sep-22 07:33N 43°06' E 005°04'1716.7
2014-Sep-22 06:33N 42°55' E 004°48'1616.4
2014-Sep-22 05:33N 42°43' E 004°32'1513.0
2014-Sep-22 04:25N 42°33' E 004°18'1112.2
2014-Sep-22 03:30N 42°25' E 004°07'1212.6
2014-Sep-22 02:33N 42°16' E 003°56'1313.0
2014-Sep-22 01:31N 42°07' E 003°43'1312.8
2014-Sep-22 00:30N 41°57' E 003°30'1212.8
2014-Sep-21 23:34N 41°49' E 003°19'1312.8
2014-Sep-21 22:33N 41°41' E 003°06'1312.8
2014-Sep-21 21:33N 41°35' E 002°51'1313.2
2014-Sep-21 20:33N 41°27' E 002°36'1313.0
2014-Sep-21 19:32N 41°20' E 002°22'9 8.9
2014-Sep-21 18:33N 41°19' E 002°10'2 1.9
2014-Sep-21 17:26N 41°21' E 002°11'0 0.0
2014-Sep-21 16:29N 41°21' E 002°11'0 0.0
2014-Sep-21 15:26N 41°21' E 002°11'0 0.0
2014-Sep-21 14:32N 41°21' E 002°11'0 0.0
2014-Sep-21 12:32N 41°21' E 002°11'0 0.0
2014-Sep-21 11:26N 41°21' E 002°11'5 5.2
2014-Sep-21 10:33N 41°17' E 002°12'1612.6
2014-Sep-21 09:18N 41°22' E 002°32'1314.7
2014-Sep-21 08:25N 41°28' E 002°47'2116.7
2014-Sep-21 07:11N 41°37' E 003°11'1117.1
2014-Sep-21 06:33N 41°42' E 003°24'1717.0
2014-Sep-21 05:33N 41°50' E 003°44'3616.5
2014-Sep-21 03:23N 42°07' E 004°27'1316.1
2014-Sep-21 02:33N 42°13' E 004°43'1616.1
2014-Sep-21 01:34N 42°20' E 005°02'1717.1
2014-Sep-21 00:32N 42°28' E 005°23'1818.4
2014-Sep-20 23:34N 42°37' E 005°45'1918.8
2014-Sep-20 22:33N 42°46' E 006°07'1919.3
2014-Sep-20 21:34N 42°55' E 006°30'1919.3
2014-Sep-20 20:34N 43°07' E 006°51'1918.9
2014-Sep-20 19:33N 43°19' E 007°12'1919.1
2014-Sep-20 18:33N 43°30' E 007°33'3818.9
2014-Sep-20 16:33N 43°54' E 008°14'1818.3
2014-Sep-20 15:33N 44°09' E 008°27'9 9.1
2014-Sep-20 14:31N 44°19' E 008°29'0 0.0
2014-Sep-20 13:31N 44°19' E 008°29'0 0.0
2014-Sep-20 12:31N 44°19' E 008°29'0 0.0
2014-Sep-20 11:28N 44°19' E 008°29'0 0.0
2014-Sep-20 10:31N 44°19' E 008°29'0 0.0
2014-Sep-20 09:28N 44°19' E 008°29'0 0.0
2014-Sep-20 08:28N 44°19' E 008°29'0 0.0
2014-Sep-20 07:25N 44°19' E 008°29'0 0.0
2014-Sep-20 06:28N 44°19' E 008°29'5 5.5
2014-Sep-20 05:33N 44°14' E 008°31'1616.4
2014-Sep-20 04:33N 43°59' E 008°20'1818.4
2014-Sep-20 03:33N 43°46' E 008°03'1716.7
2014-Sep-20 02:33N 43°36' E 007°45'1514.8
2014-Sep-20 01:33N 43°27' E 007°29'1514.9
2014-Sep-20 00:34N 43°17' E 007°12'1514.8
2014-Sep-19 23:34N 43°08' E 006°56'1414.4
2014-Sep-19 22:33N 43°00' E 006°40'1413.8
2014-Sep-19 21:33N 42°56' E 006°22'1414.0
2014-Sep-19 20:33N 42°58' E 006°03'1514.7
2014-Sep-19 19:33N 43°02' E 005°44'2014.7
2014-Sep-19 18:12N 43°10' E 005°19'711.2
2014-Sep-19 17:33N 43°17' E 005°15'5 0.8
2014-Sep-19 10:24N 43°21' E 005°20'6 7.2
2014-Sep-19 09:34N 43°17' E 005°13'1313.3
2014-Sep-19 08:34N 43°05' E 005°06'1111.2
2014-Sep-19 07:33N 42°56' E 004°57'1614.4
2014-Sep-19 06:25N 42°42' E 004°45'2015.2
2014-Sep-19 05:06N 42°25' E 004°31'10916.2
2014-Sep-18 22:22N 40°52' E 003°14'2015.9
2014-Sep-18 21:06N 40°35' E 003°00'915.8
2014-Sep-18 20:33N 40°28' E 002°53'1615.9
2014-Sep-18 19:34N 40°15' E 002°42'1716.3
2014-Sep-18 18:31N 40°00' E 002°30'1717.1
2014-Sep-18 17:33N 39°46' E 002°19'1816.3
2014-Sep-18 16:28N 39°31' E 002°07'1716.2
2014-Sep-18 15:24N 39°17' E 001°55'1416.0
2014-Sep-18 14:32N 39°05' E 001°45'1614.8
2014-Sep-18 13:27N 38°54' E 001°30'2 0.3
2014-Sep-18 06:27N 38°54' E 001°27'8410.4
2014-Sep-17 22:20N 40°15' E 001°58'2913.2
2014-Sep-17 20:07N 40°44' E 002°04'1013.7
2014-Sep-17 19:24N 40°54' E 002°06'1113.2
2014-Sep-17 18:32N 41°05' E 002°08'23 2.5
2014-Sep-17 09:27N 41°21' E 002°30'1415.9
2014-Sep-17 08:33N 41°27' E 002°48'1615.8
2014-Sep-17 07:33N 41°35' E 003°06'1616.3
2014-Sep-17 06:33N 41°42' E 003°25'1716.3
2014-Sep-17 05:30N 41°50' E 003°45'1716.5
2014-Sep-17 04:29N 41°58' E 004°06'8216.6
2014-Sep-16 23:33N 42°36' E 005°43'1919.0
2014-Sep-16 22:33N 42°45' E 006°06'1919.5
2014-Sep-16 21:33N 42°55' E 006°29'1919.0
2014-Sep-16 20:33N 43°05' E 006°51'1919.2
2014-Sep-16 19:33N 43°18' E 007°11'1919.1
2014-Sep-16 18:33N 43°29' E 007°32'3919.0
2014-Sep-16 16:29N 43°54' E 008°14'1718.2
2014-Sep-16 15:33N 44°08' E 008°26'1110.5
2014-Sep-16 14:33N 44°19' E 008°30'0 0.0
2014-Sep-16 13:30N 44°19' E 008°30'0 0.0
2014-Sep-16 12:33N 44°19' E 008°30'0 0.0
2014-Sep-16 10:30N 44°19' E 008°30'0 0.0
2014-Sep-16 08:33N 44°19' E 008°30'0 0.0
2014-Sep-16 07:24N 44°19' E 008°30'0 0.5
2014-Sep-16 06:33N 44°19' E 008°30'1010.5
2014-Sep-16 05:33N 44°09' E 008°29'1615.8
2014-Sep-16 04:32N 43°56' E 008°16'1616.6
2014-Sep-16 03:33N 43°45' E 007°59'1817.9
2014-Sep-16 02:33N 43°32' E 007°40'1818.0
2014-Sep-16 01:33N 43°21' E 007°22'1818.0
2014-Sep-16 00:33N 43°08' E 007°04'1817.8
2014-Sep-15 23:33N 42°58' E 006°45'1817.7
2014-Sep-15 22:33N 42°46' E 006°26'1818.1
2014-Sep-15 21:33N 42°34' E 006°08'2118.5
2014-Sep-15 20:24N 42°20' E 005°46'1918.9
2014-Sep-15 19:25N 42°08' E 005°27'9918.6
2014-Sep-15 14:05N 41°02' E 003°48'1518.8
2014-Sep-15 13:17N 40°53' E 003°33'7534.0
2014-Sep-15 11:05N 40°03' E 002°18'14 5.5
2014-Sep-15 08:29N 39°53' E 002°04'1918.9
2014-Sep-15 07:27N 39°41' E 001°45'9418.6
2014-Sep-15 02:22N 38°33' E 000°20'2218.6
2014-Sep-15 01:09N 38°15' E 000°04'1118.7
2014-Sep-15 00:33N 38°05' W 000°04'1919.0
2014-Sep-14 23:33N 37°49' W 000°17'1918.9
2014-Sep-14 22:33N 37°33' W 000°30'1919.0
2014-Sep-14 21:33N 37°21' W 000°48'1918.7
2014-Sep-14 20:33N 37°08' W 001°05'1919.1
2014-Sep-14 19:33N 36°55' W 001°23'1919.0
2014-Sep-14 18:33N 36°43' W 001°41'2118.7
2014-Sep-14 17:25N 36°29' W 002°01'1818.7
2014-Sep-14 16:27N 36°21' W 002°21'187 9.3
2014-Sep-13 20:24N 35°53' W 006°09'1111.8
2014-Sep-13 19:29N 35°59' W 006°21'1213.5
2014-Sep-13 18:33N 36°11' W 006°23'1313.4
2014-Sep-13 17:33N 36°24' W 006°25'11 0.9
2014-Sep-13 06:23N 36°33' W 006°17'10720.2
2014-Sep-13 01:06N 36°33' W 008°29'1221.6
2014-Sep-13 00:34N 36°33' W 008°44'  

Dump ship's entire track history